Time;durP1;ratioP1;P1;durP2;ratioP2;P2;SDS_P1;SDS_P2;PMS_P1;PMS_P2;Temp;Humidity;BMP_temperature;BMP_pressure;BME280_temperature;BME280_humidity;BME280_pressure;Samples;Min_cycle;Max_cycle;Signal;HPM_P1;HPM_P2
2023/12/23 00:01:10;;;;;;;2.35;1.35;;;8.10;99.90;;;;;;5011033;28;20325;-77
2023/12/23 00:03:37;;;;;;;1.08;0.90;;;8.00;99.90;;;;;;5011516;28;20313;-76
2023/12/23 00:06:04;;;;;;;2.63;1.15;;;8.00;99.90;;;;;;5011788;28;20583;-76
2023/12/23 00:08:31;;;;;;;3.13;0.90;;;8.00;99.90;;;;;;5011235;28;20374;-77
2023/12/23 00:10:58;;;;;;;3.20;2.10;;;8.00;99.90;;;;;;5011107;28;20666;-77
2023/12/23 00:13:26;;;;;;;2.08;1.30;;;7.90;99.90;;;;;;5009638;28;20206;-77
2023/12/23 04:32:14;;;;;;;1.00;0.90;;;7.50;99.90;;;;;;5324446;23;20475;-94
2023/12/23 04:34:46;;;;;;;3.25;0.90;;;7.50;99.90;;;;;;4991008;28;20243;-93
2023/12/23 04:37:13;;;;;;;1.10;0.80;;;7.50;99.90;;;;;;4990677;28;20265;-92
2023/12/23 04:39:42;;;;;;;2.47;1.20;;;7.60;99.90;;;;;;4996042;28;20702;-92
2023/12/23 04:42:09;;;;;;;1.00;0.80;;;7.50;99.90;;;;;;4994468;28;20277;-92
2023/12/23 04:44:36;;;;;;;1.20;1.10;;;7.50;99.90;;;;;;5007211;28;20204;-92
2023/12/23 04:47:02;;;;;;;1.00;0.90;;;7.40;99.90;;;;;;4994665;28;20200;-93
2023/12/23 04:49:31;;;;;;;1.65;1.10;;;7.50;99.90;;;;;;4994277;28;20225;-93
2023/12/23 04:51:58;;;;;;;3.72;0.95;;;7.50;99.90;;;;;;4994080;28;20238;-92
2023/12/23 04:54:24;;;;;;;2.75;0.90;;;7.50;99.90;;;;;;4994693;28;20270;-92
2023/12/23 04:56:51;;;;;;;0.90;0.77;;;7.50;99.90;;;;;;4994839;28;20199;-92
2023/12/23 04:59:18;;;;;;;3.00;1.70;;;7.50;99.90;;;;;;4996576;28;20196;-93
2023/12/23 05:01:45;;;;;;;0.70;0.60;;;7.40;99.90;;;;;;4995388;28;20231;-92
2023/12/23 05:04:11;;;;;;;0.93;0.82;;;7.50;99.90;;;;;;4995563;28;20223;-93
2023/12/23 05:06:40;;;;;;;0.75;0.60;;;7.50;99.90;;;;;;4986414;28;20222;-92
2023/12/23 05:09:06;;;;;;;1.00;0.88;;;7.60;99.90;;;;;;4997059;28;20217;-92
2023/12/23 05:11:33;;;;;;;0.90;0.80;;;7.60;99.90;;;;;;4997149;28;20229;-93
2023/12/23 05:14:00;;;;;;;1.10;0.93;;;7.60;99.90;;;;;;4997580;28;20196;-92
2023/12/23 05:16:26;;;;;;;0.80;0.70;;;7.70;99.90;;;;;;4996839;28;20215;-93
2023/12/23 05:18:53;;;;;;;0.98;0.90;;;7.60;99.90;;;;;;4997631;28;20556;-92
2023/12/23 05:21:21;;;;;;;0.90;0.70;;;7.60;99.90;;;;;;4997203;28;20661;-92
2023/12/23 05:23:49;;;;;;;0.90;0.80;;;7.60;99.90;;;;;;4997280;28;20227;-93
2023/12/23 05:26:18;;;;;;;0.85;0.80;;;7.60;99.90;;;;;;4997840;28;20210;-93
2023/12/23 05:28:45;;;;;;;0.70;0.60;;;7.60;99.90;;;;;;4997815;28;20216;-93
2023/12/23 05:31:11;;;;;;;0.80;0.70;;;7.70;99.90;;;;;;4997416;28;20231;-92
2023/12/23 05:33:38;;;;;;;1.52;0.75;;;7.60;99.90;;;;;;4990081;28;20215;-93
2023/12/23 05:36:05;;;;;;;0.70;0.60;;;7.60;99.90;;;;;;4987936;28;20215;-92
2023/12/23 05:38:32;;;;;;;1.13;0.90;;;7.50;99.90;;;;;;4989415;28;20208;-92
2023/12/23 05:41:01;;;;;;;1.08;0.98;;;7.60;99.90;;;;;;4991947;28;20226;-93
2023/12/23 05:43:27;;;;;;;1.25;0.82;;;7.60;99.90;;;;;;4980654;28;20228;-93
2023/12/23 05:45:54;;;;;;;0.90;0.90;;;7.60;99.90;;;;;;4988472;28;20216;-93
2023/12/23 05:48:21;;;;;;;0.80;0.70;;;7.60;99.90;;;;;;4988704;28;20226;-92
2023/12/23 05:50:48;;;;;;;0.70;0.60;;;7.50;99.90;;;;;;4989367;28;20291;-92
2023/12/23 05:53:14;;;;;;;2.15;0.70;;;7.50;99.90;;;;;;4992254;28;20207;-92
2023/12/23 05:55:41;;;;;;;2.03;0.70;;;7.30;99.90;;;;;;4988727;28;20211;-92
2023/12/23 05:58:09;;;;;;;0.80;0.70;;;7.40;99.90;;;;;;4990839;28;20203;-92
2023/12/23 06:00:36;;;;;;;1.20;0.70;;;7.30;99.90;;;;;;4986397;28;20208;-92
2023/12/23 06:03:03;;;;;;;0.70;0.60;;;7.20;99.90;;;;;;4986223;28;20235;-93
2023/12/23 06:05:30;;;;;;;0.82;0.70;;;7.20;99.90;;;;;;4984548;28;20566;-92
2023/12/23 06:07:58;;;;;;;0.70;0.60;;;7.10;99.90;;;;;;4989541;28;20204;-93
2023/12/23 06:10:24;;;;;;;0.70;0.60;;;7.10;99.90;;;;;;4988014;28;20219;-92
2023/12/23 06:12:51;;;;;;;0.70;0.60;;;7.10;99.90;;;;;;4992045;28;20207;-93
2023/12/23 06:15:37;;;;;;;0.70;0.60;;;7.00;99.90;;;;;;4989932;28;20210;-92
2023/12/23 06:18:04;;;;;;;0.70;0.60;;;7.10;99.90;;;;;;4983527;28;20266;-92
2023/12/23 06:20:31;;;;;;;0.70;0.60;;;7.10;99.90;;;;;;4981413;28;20574;-92
2023/12/23 06:22:58;;;;;;;0.70;0.60;;;7.10;99.90;;;;;;4985204;28;20223;-93
2023/12/23 06:25:24;;;;;;;0.80;0.70;;;7.10;99.90;;;;;;4987319;28;20397;-92
2023/12/23 06:27:51;;;;;;;0.80;0.70;;;7.10;99.90;;;;;;4988022;28;20212;-93
2023/12/23 06:30:18;;;;;;;0.70;0.60;;;7.10;99.90;;;;;;4988560;28;20209;-92
2023/12/23 06:32:51;;;;;;;0.70;0.70;;;7.10;99.90;;;;;;4994181;28;20250;-92
2023/12/23 06:35:20;;;;;;;0.70;0.60;;;7.20;99.90;;;;;;4995744;28;20207;-93
2023/12/23 06:37:49;;;;;;;1.00;0.80;;;7.20;99.90;;;;;;4995663;28;20229;-93
2023/12/23 06:40:16;;;;;;;0.70;0.60;;;7.20;99.90;;;;;;4996125;28;20645;-93
2023/12/23 06:42:43;;;;;;;0.70;0.60;;;7.20;99.90;;;;;;4995708;28;20238;-93
2023/12/23 06:45:11;;;;;;;0.70;0.60;;;7.20;99.90;;;;;;4995727;28;20203;-93
2023/12/23 06:47:40;;;;;;;0.70;0.60;;;7.20;99.90;;;;;;4993853;28;20222;-93
2023/12/23 06:50:09;;;;;;;1.00;0.90;;;7.20;99.90;;;;;;4996279;28;20290;-93
2023/12/23 06:52:36;;;;;;;0.90;0.70;;;7.20;99.90;;;;;;4996019;28;20231;-93
2023/12/23 06:55:02;;;;;;;0.70;0.60;;;7.30;99.90;;;;;;4999156;28;20290;-93
2023/12/23 06:57:29;;;;;;;0.70;0.70;;;7.20;99.90;;;;;;4996362;28;20591;-92
2023/12/23 06:59:59;;;;;;;0.70;0.60;;;7.20;99.90;;;;;;4995492;28;20206;-93
2023/12/23 07:02:26;;;;;;;0.70;0.60;;;7.20;99.90;;;;;;4994647;28;20715;-93
2023/12/23 07:04:53;;;;;;;0.90;0.80;;;7.20;99.90;;;;;;4994567;28;20227;-93
2023/12/23 07:07:21;;;;;;;0.70;0.60;;;7.30;99.90;;;;;;4994977;28;20211;-93
2023/12/23 07:09:51;;;;;;;0.70;0.68;;;7.20;99.90;;;;;;4995127;28;20199;-92
2023/12/23 07:12:18;;;;;;;0.90;0.80;;;7.20;99.90;;;;;;4994479;28;20238;-93
2023/12/23 07:14:47;;;;;;;0.70;0.60;;;7.20;99.90;;;;;;4994767;28;20207;-92
2023/12/23 07:17:14;;;;;;;0.80;0.68;;;7.30;99.90;;;;;;4994969;28;20219;-92
2023/12/23 07:19:52;;;;;;;0.70;0.60;;;7.20;99.90;;;;;;4994526;28;20204;-93
2023/12/23 07:22:28;;;;;;;0.70;0.60;;;7.20;99.90;;;;;;4995184;28;20245;-92
2023/12/23 07:24:55;;;;;;;0.70;0.60;;;7.20;99.90;;;;;;4994881;28;20595;-93
2023/12/23 07:27:24;;;;;;;0.80;0.70;;;7.20;99.90;;;;;;4994631;28;20210;-93
2023/12/23 07:29:58;;;;;;;1.33;1.23;;;7.10;99.90;;;;;;4995598;28;20207;-92
2023/12/23 07:32:25;;;;;;;1.38;1.27;;;7.10;99.90;;;;;;4994556;28;20377;-92
2023/12/23 07:34:52;;;;;;;1.52;0.70;;;7.10;99.90;;;;;;5002315;28;20203;-93
2023/12/23 07:37:20;;;;;;;0.80;0.65;;;7.20;99.90;;;;;;4993569;28;20207;-94
2023/12/23 07:39:56;;;;;;;0.70;0.68;;;7.10;99.90;;;;;;4995238;28;20665;-94
2023/12/23 07:42:34;;;;;;;0.70;0.60;;;7.20;99.90;;;;;;4998453;28;20227;-95
2023/12/23 07:45:06;;;;;;;0.80;0.70;;;7.20;99.90;;;;;;5000182;28;20223;-95
2023/12/23 07:47:34;;;;;;;2.38;0.75;;;7.20;99.90;;;;;;5001364;28;20235;-95
2023/12/23 07:50:05;;;;;;;0.70;0.60;;;7.20;99.90;;;;;;4997685;28;20218;-94
2023/12/23 07:52:39;;;;;;;0.70;0.70;;;7.30;99.90;;;;;;4999782;28;20321;-95
2023/12/23 07:55:07;;;;;;;1.08;0.80;;;7.30;99.90;;;;;;5003722;28;20211;-93
2023/12/23 07:57:47;;;;;;;0.70;0.60;;;7.30;99.90;;;;;;5002543;28;20207;-95
2023/12/23 08:09:22;;;;;;;0.70;0.60;;;7.40;99.90;;;;;;5033344;23;20236;-81
2023/12/23 08:11:48;;;;;;;0.80;0.80;;;7.40;99.90;;;;;;5027577;28;20233;-81
2023/12/23 08:14:15;;;;;;;0.70;0.60;;;7.40;99.90;;;;;;5019435;28;20689;-81
2023/12/23 08:16:42;;;;;;;0.70;0.60;;;7.40;99.90;;;;;;5017756;28;20206;-80
2023/12/23 08:19:09;;;;;;;1.00;0.80;;;7.30;99.90;;;;;;5014246;28;20466;-81
2023/12/23 08:21:36;;;;;;;0.90;0.70;;;7.30;99.90;;;;;;5015354;28;20477;-81
2023/12/23 08:24:03;;;;;;;0.82;0.70;;;7.30;99.90;;;;;;5013719;28;20226;-81
2023/12/23 08:26:31;;;;;;;0.90;0.70;;;7.30;99.90;;;;;;5014740;28;20210;-80
2023/12/23 08:28:58;;;;;;;0.70;0.70;;;7.30;99.90;;;;;;5015037;28;20209;-83
2023/12/23 08:31:25;;;;;;;0.70;0.60;;;7.40;99.90;;;;;;5014455;28;20313;-81
2023/12/23 08:33:52;;;;;;;0.70;0.60;;;7.40;99.90;;;;;;5015172;28;20318;-79
2023/12/23 08:36:19;;;;;;;0.80;0.70;;;7.40;99.90;;;;;;5015905;28;20203;-79
2023/12/23 08:38:45;;;;;;;0.70;0.60;;;7.40;99.90;;;;;;5011930;28;20213;-78
2023/12/23 08:41:12;;;;;;;0.80;0.70;;;7.40;99.90;;;;;;5012513;28;20226;-79
2023/12/23 08:43:40;;;;;;;0.70;0.60;;;7.40;99.90;;;;;;5009976;28;20241;-75
2023/12/23 08:46:07;;;;;;;0.80;0.70;;;7.40;99.90;;;;;;5015053;28;20213;-79
2023/12/23 08:48:33;;;;;;;0.90;0.80;;;7.40;99.90;;;;;;5014972;28;20210;-79
2023/12/23 08:51:00;;;;;;;0.70;0.60;;;7.40;99.90;;;;;;5014473;28;20235;-78
2023/12/23 08:53:28;;;;;;;0.70;0.60;;;7.40;99.90;;;;;;5015269;28;20207;-78
2023/12/23 08:55:54;;;;;;;0.73;0.70;;;7.50;99.90;;;;;;5015120;28;20203;-78
2023/12/23 08:58:21;;;;;;;0.70;0.60;;;7.50;99.90;;;;;;5015118;28;20213;-79
2023/12/23 09:00:49;;;;;;;0.70;0.60;;;7.50;99.90;;;;;;5014655;28;20229;-79
2023/12/23 09:03:16;;;;;;;1.08;0.80;;;7.50;99.90;;;;;;5014463;28;20214;-78
2023/12/23 09:05:44;;;;;;;0.90;0.70;;;7.50;99.90;;;;;;5016063;28;20245;-79
2023/12/23 09:08:10;;;;;;;0.70;0.60;;;7.50;99.90;;;;;;5018236;28;20210;-79
2023/12/23 09:10:37;;;;;;;0.70;0.60;;;7.60;99.90;;;;;;5018218;28;20226;-79
2023/12/23 09:13:05;;;;;;;0.70;0.70;;;7.50;99.90;;;;;;5023502;28;20210;-79
2023/12/23 09:15:31;;;;;;;2.10;0.80;;;7.50;99.90;;;;;;5025811;28;20203;-79
2023/12/23 09:17:59;;;;;;;0.70;0.60;;;7.60;99.90;;;;;;5023166;28;20207;-79
2023/12/23 09:20:27;;;;;;;0.90;0.70;;;7.60;99.90;;;;;;5017030;28;20207;-80
2023/12/23 09:22:54;;;;;;;0.90;0.80;;;7.60;99.90;;;;;;5014038;28;20692;-77
2023/12/23 09:25:21;;;;;;;0.70;0.60;;;7.60;99.90;;;;;;5013788;28;20230;-77
2023/12/23 09:27:48;;;;;;;0.70;0.70;;;7.70;99.90;;;;;;5014852;28;20214;-79
2023/12/23 09:30:16;;;;;;;0.70;0.60;;;7.70;99.90;;;;;;5014643;28;20719;-79
2023/12/23 09:32:42;;;;;;;0.98;0.70;;;7.70;99.90;;;;;;5014854;28;20216;-80
2023/12/23 09:35:11;;;;;;;0.90;0.70;;;7.80;99.90;;;;;;5017254;28;20194;-78
2023/12/23 09:37:37;;;;;;;0.90;0.65;;;7.80;99.90;;;;;;5015977;28;20224;-79
2023/12/23 09:40:05;;;;;;;0.70;0.60;;;7.80;99.90;;;;;;5017767;28;20213;-79
2023/12/23 09:42:32;;;;;;;0.70;0.60;;;7.80;99.90;;;;;;5020812;28;20241;-78
2023/12/23 09:44:59;;;;;;;0.70;0.60;;;7.90;99.90;;;;;;5017257;28;20579;-77
2023/12/23 09:47:26;;;;;;;0.70;0.60;;;7.90;99.90;;;;;;5013348;28;20603;-78
2023/12/23 09:49:53;;;;;;;0.70;0.60;;;7.90;99.90;;;;;;5015159;28;20239;-78
2023/12/23 09:52:21;;;;;;;0.70;0.60;;;7.90;99.90;;;;;;5015700;28;20219;-76
2023/12/23 09:54:52;;;;;;;0.80;0.70;;;7.90;99.90;;;;;;5013117;28;20209;-78
2023/12/23 09:57:20;;;;;;;0.80;0.70;;;7.90;99.90;;;;;;5012527;28;20259;-78
2023/12/23 09:59:51;;;;;;;0.70;0.60;;;7.90;99.90;;;;;;5014925;28;20214;-77
2023/12/23 10:02:17;;;;;;;0.85;0.68;;;7.90;99.90;;;;;;5012909;28;20233;-79
2023/12/23 10:04:44;;;;;;;0.70;0.60;;;7.90;99.90;;;;;;5013255;28;20710;-77
2023/12/23 10:07:11;;;;;;;0.70;0.65;;;7.90;99.90;;;;;;5012611;28;20219;-78
2023/12/23 10:09:39;;;;;;;0.80;0.70;;;7.90;99.90;;;;;;5007449;28;20225;-79
2023/12/23 10:12:06;;;;;;;0.70;0.60;;;8.00;99.90;;;;;;5012133;28;20226;-78
2023/12/23 10:14:33;;;;;;;0.70;0.60;;;8.00;99.90;;;;;;5013046;28;20214;-78
2023/12/23 10:17:00;;;;;;;0.70;0.60;;;8.00;99.90;;;;;;5013156;28;20207;-77
2023/12/23 10:19:26;;;;;;;0.70;0.70;;;8.00;99.90;;;;;;5013644;28;20218;-81
2023/12/23 10:21:53;;;;;;;0.70;0.60;;;8.00;99.90;;;;;;5015068;28;20230;-80
2023/12/23 10:24:20;;;;;;;1.58;0.90;;;8.00;99.90;;;;;;5012522;28;23981;-79
2023/12/23 10:26:48;;;;;;;0.90;0.70;;;8.00;99.90;;;;;;5012931;28;20346;-79
2023/12/23 10:29:17;;;;;;;0.90;0.70;;;7.90;99.90;;;;;;5012336;28;20206;-78
2023/12/23 10:31:50;;;;;;;0.70;0.60;;;7.90;99.90;;;;;;5012846;28;20241;-78
2023/12/23 10:34:21;;;;;;;0.70;0.60;;;7.90;99.90;;;;;;5011888;28;20581;-79
2023/12/23 10:36:49;;;;;;;0.70;0.60;;;8.00;99.90;;;;;;5012052;28;20710;-79
2023/12/23 10:39:27;;;;;;;0.70;0.70;;;8.00;99.90;;;;;;5007017;28;20234;-79
2023/12/23 10:42:02;;;;;;;0.70;0.60;;;8.00;99.90;;;;;;5012854;28;20236;-77
2023/12/23 10:44:32;;;;;;;0.70;0.60;;;7.90;99.90;;;;;;5011597;28;20294;-75
2023/12/23 10:47:00;;;;;;;0.70;0.60;;;7.90;99.90;;;;;;5012873;28;20207;-76
2023/12/23 10:49:30;;;;;;;0.70;0.60;;;7.90;99.90;;;;;;5012268;28;20211;-77
2023/12/23 10:52:00;;;;;;;0.80;0.70;;;7.90;99.90;;;;;;5012992;28;20231;-75
2023/12/23 10:54:34;;;;;;;0.80;0.60;;;7.90;99.90;;;;;;5006163;28;20569;-76
2023/12/23 10:57:04;;;;;;;1.15;0.63;;;7.80;99.90;;;;;;5005119;28;20582;-74
2023/12/23 10:59:31;;;;;;;0.70;0.70;;;7.80;99.90;;;;;;5007591;28;20749;-76
2023/12/23 11:02:03;;;;;;;0.80;0.70;;;7.90;99.90;;;;;;5011650;28;20226;-75
2023/12/23 11:04:30;;;;;;;0.90;0.70;;;7.80;99.90;;;;;;5009116;28;20322;-74
2023/12/23 11:07:01;;;;;;;0.70;0.70;;;7.90;99.90;;;;;;5012372;28;20211;-75
2023/12/23 11:09:31;;;;;;;0.80;0.68;;;8.00;99.90;;;;;;5011600;28;20213;-76
2023/12/23 11:11:58;;;;;;;0.70;0.70;;;7.90;99.90;;;;;;5012454;28;20230;-76
2023/12/23 11:14:27;;;;;;;0.90;0.60;;;7.90;99.90;;;;;;5010926;28;20353;-76
2023/12/23 11:16:56;;;;;;;0.80;0.70;;;7.90;99.90;;;;;;5002915;28;20290;-74
2023/12/23 11:19:23;;;;;;;1.10;0.70;;;7.90;99.90;;;;;;5008505;28;20202;-75
2023/12/23 11:22:23;;;;;;;0.70;0.60;;;7.90;99.90;;;;;;5011387;28;20313;-75
2023/12/23 11:24:50;;;;;;;1.65;1.00;;;7.90;99.90;;;;;;5008590;28;20254;-76
2023/12/23 11:27:34;;;;;;;0.90;0.75;;;7.90;99.90;;;;;;5011049;28;20218;-76
2023/12/23 11:30:03;;;;;;;0.70;0.70;;;7.90;99.90;;;;;;5011028;28;20305;-76
2023/12/23 11:32:36;;;;;;;0.70;0.60;;;7.90;99.90;;;;;;5012067;28;20230;-80
2023/12/23 11:35:05;;;;;;;0.70;0.70;;;7.90;99.90;;;;;;5014539;28;20206;-79
2023/12/23 11:37:59;;;;;;;0.70;0.60;;;7.90;99.90;;;;;;5011213;28;20665;-79
2023/12/23 11:40:29;;;;;;;0.70;0.60;;;7.90;99.90;;;;;;4997878;28;20214;-78
2023/12/23 11:42:57;;;;;;;0.70;0.60;;;7.90;99.90;;;;;;5012118;28;20234;-76
2023/12/23 11:45:24;;;;;;;0.70;0.60;;;7.90;99.90;;;;;;5009370;28;20230;-76
2023/12/23 11:47:52;;;;;;;0.70;0.60;;;8.00;99.90;;;;;;5010167;28;20221;-76
2023/12/23 11:50:19;;;;;;;0.70;0.60;;;8.10;99.90;;;;;;5011666;28;20211;-74
2023/12/23 11:52:46;;;;;;;0.70;0.70;;;8.10;99.90;;;;;;5011860;28;20254;-75
2023/12/23 11:55:16;;;;;;;0.70;0.60;;;8.20;99.90;;;;;;5009538;28;20202;-74
2023/12/23 11:57:43;;;;;;;0.70;0.60;;;8.20;99.90;;;;;;5010926;28;20239;-74
2023/12/23 12:00:12;;;;;;;0.90;0.70;;;8.30;99.90;;;;;;5011191;28;20300;-77
2023/12/23 12:02:39;;;;;;;1.27;0.80;;;8.20;99.90;;;;;;5005113;28;20285;-80
2023/12/23 12:05:07;;;;;;;4.03;1.00;;;8.20;99.90;;;;;;5012009;28;20231;-76
2023/12/23 12:07:35;;;;;;;2.13;0.80;;;8.20;99.90;;;;;;5008248;28;20245;-77
2023/12/23 12:10:02;;;;;;;0.95;0.68;;;8.20;99.90;;;;;;5010791;28;20424;-76
2023/12/23 12:12:30;;;;;;;0.70;0.70;;;8.20;99.90;;;;;;5010578;28;20241;-76
2023/12/23 12:14:57;;;;;;;1.02;0.80;;;8.20;99.90;;;;;;5011400;28;20606;-77
2023/12/23 12:17:25;;;;;;;0.70;0.60;;;8.20;99.90;;;;;;5012884;28;20580;-74
2023/12/23 12:19:51;;;;;;;0.70;0.60;;;8.20;99.90;;;;;;5015056;28;20285;-74
2023/12/23 12:22:18;;;;;;;1.30;0.95;;;8.20;99.90;;;;;;5014278;28;20230;-74
2023/12/23 12:24:45;;;;;;;0.80;0.70;;;8.20;99.90;;;;;;5015204;28;20214;-76
2023/12/23 12:27:12;;;;;;;0.90;0.70;;;8.20;99.90;;;;;;5015517;28;20203;-77
2023/12/23 12:29:43;;;;;;;0.70;0.70;;;8.20;99.90;;;;;;5007128;28;20264;-77
2023/12/23 12:32:13;;;;;;;0.80;0.70;;;8.20;99.90;;;;;;5016046;28;20322;-76
2023/12/23 12:34:40;;;;;;;0.70;0.60;;;8.20;99.90;;;;;;5006947;28;20230;-76
2023/12/23 12:37:08;;;;;;;0.77;0.68;;;8.30;99.90;;;;;;5015507;28;20245;-76
2023/12/23 12:39:35;;;;;;;0.70;0.60;;;8.30;99.90;;;;;;5014701;28;20238;-77
2023/12/23 12:42:03;;;;;;;0.70;0.60;;;8.40;99.90;;;;;;5014853;28;20226;-75
2023/12/23 12:44:29;;;;;;;0.98;0.88;;;8.50;99.90;;;;;;5011525;28;20297;-74
2023/12/23 12:46:58;;;;;;;1.17;0.80;;;8.50;99.90;;;;;;5008430;28;20223;-75
2023/12/23 12:49:25;;;;;;;0.80;0.70;;;8.50;99.90;;;;;;5013767;28;20592;-75
2023/12/23 12:51:52;;;;;;;0.77;0.70;;;8.50;99.90;;;;;;5014947;28;20239;-76
2023/12/23 12:54:21;;;;;;;0.70;0.60;;;8.50;99.90;;;;;;5014028;28;20214;-74
2023/12/23 12:56:48;;;;;;;1.10;0.77;;;8.50;99.90;;;;;;5014265;28;20241;-76
2023/12/23 12:59:15;;;;;;;0.70;0.70;;;8.50;99.90;;;;;;5017218;28;20203;-77
2023/12/23 13:01:42;;;;;;;0.70;0.60;;;8.50;99.90;;;;;;5009316;28;20244;-77
2023/12/23 13:04:10;;;;;;;0.70;0.60;;;8.60;99.90;;;;;;5021394;28;20222;-79
2023/12/23 13:06:37;;;;;;;1.75;1.17;;;8.60;99.90;;;;;;5022462;28;20231;-77
2023/12/23 13:09:05;;;;;;;0.70;0.60;;;8.60;99.90;;;;;;5020404;28;20234;-78
2023/12/23 13:11:32;;;;;;;0.70;0.60;;;8.50;99.90;;;;;;5016135;28;20609;-78
2023/12/23 13:13:59;;;;;;;0.80;0.70;;;8.50;99.90;;;;;;5017116;28;20234;-77
2023/12/23 13:16:26;;;;;;;0.70;0.70;;;8.50;99.90;;;;;;5016588;28;20621;-77
2023/12/23 13:18:54;;;;;;;0.90;0.80;;;8.50;99.90;;;;;;5017906;28;20641;-78
2023/12/23 13:21:22;;;;;;;0.80;0.70;;;8.60;99.90;;;;;;5025580;28;20221;-78
2023/12/23 13:23:49;;;;;;;0.82;0.77;;;8.60;99.90;;;;;;5022927;28;20203;-76
2023/12/23 13:26:16;;;;;;;1.55;0.60;;;8.60;99.90;;;;;;5013315;28;20233;-76
2023/12/23 13:28:43;;;;;;;0.70;0.60;;;8.50;99.90;;;;;;5012337;28;20204;-78
2023/12/23 13:31:10;;;;;;;0.80;0.70;;;8.50;99.90;;;;;;5023751;28;20221;-78
2023/12/23 13:33:37;;;;;;;0.70;0.60;;;8.50;99.90;;;;;;5022252;28;20224;-79
2023/12/23 13:36:04;;;;;;;1.88;0.93;;;8.50;99.90;;;;;;5008795;28;20212;-78
2023/12/23 13:38:32;;;;;;;0.70;0.60;;;8.50;99.90;;;;;;5005828;28;20212;-77
2023/12/23 13:40:59;;;;;;;0.85;0.70;;;8.60;99.90;;;;;;5007794;28;20231;-79
2023/12/23 13:43:26;;;;;;;0.82;0.70;;;8.50;99.90;;;;;;5015152;28;20249;-78
2023/12/23 13:45:52;;;;;;;2.05;0.80;;;8.60;99.90;;;;;;5009795;28;21014;-78
2023/12/23 13:48:19;;;;;;;0.85;0.68;;;8.50;99.90;;;;;;5008971;28;20292;-80
2023/12/23 13:50:46;;;;;;;1.42;0.80;;;8.50;99.90;;;;;;5005177;28;20229;-80
2023/12/23 13:53:14;;;;;;;0.80;0.70;;;8.50;99.90;;;;;;5018222;28;20214;-79
2023/12/23 13:55:43;;;;;;;0.70;0.60;;;8.50;99.90;;;;;;5010949;28;20207;-79
2023/12/23 13:58:11;;;;;;;1.00;0.70;;;8.30;99.90;;;;;;5009076;28;20235;-79
2023/12/23 14:00:38;;;;;;;0.70;0.63;;;8.30;99.90;;;;;;5015852;28;20727;-79
2023/12/23 14:03:06;;;;;;;0.80;0.70;;;8.20;99.90;;;;;;5003014;28;20219;-79
2023/12/23 14:05:33;;;;;;;0.75;0.63;;;8.20;99.90;;;;;;5003126;28;20223;-80
2023/12/23 14:08:00;;;;;;;0.73;0.65;;;8.10;99.90;;;;;;5020343;28;20215;-80
2023/12/23 14:10:27;;;;;;;0.80;0.70;;;8.10;99.90;;;;;;5017982;28;20208;-80
2023/12/23 14:12:55;;;;;;;0.70;0.60;;;8.10;99.90;;;;;;5019776;28;20215;-80
2023/12/23 14:15:22;;;;;;;1.45;0.80;;;8.10;99.90;;;;;;5022670;28;20208;-80
2023/12/23 14:17:48;;;;;;;2.08;0.70;;;8.10;99.90;;;;;;5021597;28;20207;-81
2023/12/23 14:20:14;;;;;;;0.70;0.60;;;8.00;99.90;;;;;;5022730;28;20211;-79
2023/12/23 14:22:41;;;;;;;0.70;0.60;;;8.10;99.90;;;;;;5023220;28;20272;-81
2023/12/23 14:25:08;;;;;;;0.70;0.60;;;8.10;99.90;;;;;;5016164;28;20462;-81
2023/12/23 14:27:35;;;;;;;0.70;0.70;;;8.10;99.90;;;;;;5022150;28;20243;-82
2023/12/23 14:30:03;;;;;;;0.90;0.73;;;8.10;99.90;;;;;;5023720;28;20218;-82
2023/12/23 14:32:30;;;;;;;0.80;0.70;;;8.10;99.90;;;;;;5022314;28;20219;-79
2023/12/23 14:34:57;;;;;;;0.70;0.60;;;8.10;99.90;;;;;;5024640;28;20215;-80
2023/12/23 14:37:24;;;;;;;1.58;0.60;;;8.00;99.90;;;;;;5024948;28;20262;-80
2023/12/23 14:39:50;;;;;;;0.93;0.70;;;8.00;99.90;;;;;;5017642;28;20222;-80
2023/12/23 14:42:17;;;;;;;0.70;0.60;;;8.00;99.90;;;;;;5021445;28;20223;-81
2023/12/23 14:44:44;;;;;;;0.80;0.70;;;8.00;99.90;;;;;;5023984;28;20216;-79
2023/12/23 14:47:13;;;;;;;1.08;0.80;;;8.00;99.90;;;;;;5025045;28;20222;-77
2023/12/23 14:49:39;;;;;;;1.30;0.70;;;8.00;99.90;;;;;;5022275;28;20727;-80
2023/12/23 14:52:06;;;;;;;0.80;0.70;;;8.00;99.90;;;;;;5023285;28;20246;-79
2023/12/23 14:54:33;;;;;;;1.02;0.70;;;8.00;99.90;;;;;;5024392;28;20223;-80
2023/12/23 14:57:00;;;;;;;1.25;0.80;;;8.00;99.90;;;;;;5026485;28;20209;-79
2023/12/23 14:59:29;;;;;;;0.70;0.60;;;8.00;99.90;;;;;;5020673;28;20302;-80
2023/12/23 15:01:56;;;;;;;0.70;0.60;;;8.00;99.90;;;;;;5021841;28;20241;-79
2023/12/23 15:04:24;;;;;;;0.80;0.70;;;8.00;99.90;;;;;;5021357;28;20207;-80
2023/12/23 15:06:51;;;;;;;0.80;0.60;;;8.00;99.90;;;;;;5013835;28;20628;-77
2023/12/23 15:09:18;;;;;;;0.80;0.70;;;8.00;99.90;;;;;;5003490;28;20503;-77
2023/12/23 15:11:45;;;;;;;0.70;0.60;;;8.00;99.90;;;;;;4999216;28;20720;-81
2023/12/23 15:14:11;;;;;;;0.70;0.60;;;8.00;99.90;;;;;;5009985;28;20207;-80
2023/12/23 15:16:38;;;;;;;0.80;0.70;;;8.00;99.90;;;;;;5000087;28;20216;-81
2023/12/23 15:19:05;;;;;;;1.00;0.80;;;8.00;99.90;;;;;;5004725;28;20208;-77
2023/12/23 15:21:33;;;;;;;1.65;0.70;;;8.00;99.90;;;;;;5002111;28;20245;-80
2023/12/23 15:24:00;;;;;;;0.95;0.70;;;8.00;99.90;;;;;;5015351;28;20211;-78
2023/12/23 15:26:28;;;;;;;0.70;0.60;;;8.00;99.90;;;;;;5001168;28;20231;-78
2023/12/23 15:28:55;;;;;;;0.70;0.60;;;8.00;99.90;;;;;;4991277;28;20242;-77
2023/12/23 15:31:21;;;;;;;0.80;0.70;;;7.90;99.90;;;;;;4991401;28;20230;-74
2023/12/23 15:33:48;;;;;;;0.70;0.63;;;7.90;99.90;;;;;;4990898;28;20211;-75
2023/12/23 15:36:14;;;;;;;0.80;0.70;;;7.90;99.90;;;;;;4991087;28;20208;-74
2023/12/23 15:38:42;;;;;;;1.20;0.70;;;7.90;99.90;;;;;;4991317;28;20687;-75
2023/12/23 15:41:09;;;;;;;0.80;0.70;;;7.90;99.90;;;;;;4992313;28;20504;-74
2023/12/23 15:43:35;;;;;;;1.48;0.88;;;7.90;99.90;;;;;;4991072;28;20204;-75
2023/12/23 15:46:02;;;;;;;0.70;0.70;;;7.90;99.90;;;;;;4991639;28;20613;-74
2023/12/23 15:48:29;;;;;;;0.70;0.70;;;7.90;99.90;;;;;;4999698;28;20204;-75
2023/12/23 15:50:55;;;;;;;0.70;0.60;;;7.90;99.90;;;;;;4990971;28;20219;-76
2023/12/23 15:53:22;;;;;;;0.80;0.70;;;7.90;99.90;;;;;;4991635;28;20413;-76
2023/12/23 15:55:50;;;;;;;0.80;0.70;;;7.90;99.90;;;;;;4993117;28;20466;-79
2023/12/23 15:58:17;;;;;;;0.70;0.60;;;7.90;99.90;;;;;;4995516;28;20214;-79
2023/12/23 16:00:43;;;;;;;1.10;0.90;;;7.90;99.90;;;;;;4998374;28;20229;-79
2023/12/23 16:03:10;;;;;;;0.70;0.60;;;7.80;99.90;;;;;;5004721;28;20226;-82
2023/12/23 16:05:37;;;;;;;3.97;0.98;;;7.90;99.90;;;;;;5003866;28;20211;-82
2023/12/23 16:08:05;;;;;;;0.80;0.70;;;7.90;99.90;;;;;;5011951;28;20306;-80
2023/12/23 16:10:32;;;;;;;0.80;0.70;;;7.90;99.90;;;;;;5019538;28;20214;-81
2023/12/23 16:13:00;;;;;;;0.80;0.70;;;7.90;99.90;;;;;;5008121;28;20206;-82
2023/12/23 16:15:27;;;;;;;0.90;0.90;;;7.90;99.90;;;;;;5013786;28;20282;-82
2023/12/23 16:17:54;;;;;;;0.80;0.75;;;7.90;99.90;;;;;;5017354;28;20217;-81
2023/12/23 16:20:20;;;;;;;0.80;0.70;;;7.90;99.90;;;;;;5022914;28;20203;-79
2023/12/23 16:22:47;;;;;;;0.90;0.80;;;7.90;99.90;;;;;;5022251;28;20298;-79
2023/12/23 16:25:14;;;;;;;0.70;0.60;;;7.90;99.90;;;;;;5014425;28;20219;-79
2023/12/23 16:27:41;;;;;;;0.90;0.80;;;8.00;99.90;;;;;;5015396;28;20225;-79
2023/12/23 16:30:10;;;;;;;0.70;0.60;;;8.00;99.90;;;;;;5016069;28;20210;-79
2023/12/23 16:32:37;;;;;;;0.70;0.70;;;8.00;99.90;;;;;;5018298;28;20223;-80
2023/12/23 16:35:06;;;;;;;0.85;0.70;;;8.00;99.90;;;;;;5017050;28;20214;-79
2023/12/23 16:37:32;;;;;;;0.80;0.80;;;8.00;99.90;;;;;;5015507;28;20253;-79
2023/12/23 16:39:59;;;;;;;1.10;1.00;;;8.00;99.90;;;;;;5014386;28;20206;-79
2023/12/23 16:42:26;;;;;;;0.90;0.80;;;8.00;99.90;;;;;;5015328;28;20223;-79
2023/12/23 16:44:52;;;;;;;0.90;0.70;;;8.00;99.90;;;;;;5015486;28;20208;-79
2023/12/23 16:47:24;;;;;;;0.80;0.70;;;8.00;99.90;;;;;;5016119;28;20219;-79
2023/12/23 16:49:53;;;;;;;0.80;0.70;;;8.00;99.90;;;;;;5016360;28;20710;-79
2023/12/23 16:52:19;;;;;;;0.90;0.80;;;8.00;99.90;;;;;;5012970;28;20623;-78
2023/12/23 16:54:47;;;;;;;0.80;0.80;;;7.90;99.90;;;;;;5011666;28;20215;-77
2023/12/23 16:57:13;;;;;;;1.13;0.70;;;7.90;99.90;;;;;;5011101;28;20564;-77
2023/12/23 16:59:40;;;;;;;0.70;0.70;;;7.90;99.90;;;;;;5011035;28;20219;-77
2023/12/23 17:02:07;;;;;;;1.88;1.20;;;8.00;99.90;;;;;;5011980;28;20600;-78
2023/12/23 17:04:35;;;;;;;1.52;1.38;;;7.90;99.90;;;;;;5014236;28;20590;-78
2023/12/23 17:07:02;;;;;;;1.10;0.90;;;7.90;99.90;;;;;;5015438;28;20223;-76
2023/12/23 17:09:29;;;;;;;1.15;0.80;;;7.90;99.90;;;;;;5006099;28;20231;-80
2023/12/23 17:11:55;;;;;;;0.80;0.80;;;7.90;99.90;;;;;;5000555;28;20235;-80
2023/12/23 17:14:22;;;;;;;0.80;0.70;;;7.90;99.90;;;;;;5000280;28;20207;-80
2023/12/23 17:16:49;;;;;;;0.70;0.70;;;7.90;99.90;;;;;;4999945;28;20606;-78
2023/12/23 17:19:16;;;;;;;0.90;0.70;;;7.90;99.90;;;;;;5001614;28;20211;-81
2023/12/23 17:21:44;;;;;;;1.55;0.85;;;7.90;99.90;;;;;;5002643;28;20324;-79
2023/12/23 17:24:10;;;;;;;1.23;0.70;;;7.90;99.90;;;;;;4997776;28;20216;-77
2023/12/23 17:26:37;;;;;;;1.20;0.80;;;7.90;99.90;;;;;;5000796;28;20231;-80